ADDS METAR Data INFO
IDs: Format: Raw Decoded Include TAF

Data at: 1611 UTC 14 Aug 2018

KFOD 141556Z AUTO 00000KT 10SM CLR 24/20 A2996 RMK AO2 SLP165 T02440200
KFOD 141456Z AUTO 20003KT 10SM CLR 24/20 A2996 RMK AO2 SLP162 T02390200 51002
KFOD 141356Z AUTO 00000KT 10SM CLR 22/20 A2995 RMK AO2 SLP161 T02170200
KFOD 141256Z AUTO 10003KT 9SM CLR 21/19 A2996 RMK AO2 SLP162 T02060189
KFOD 141156Z AUTO 09003KT 6SM BR CLR 19/18 A2995 RMK AO2 SLP160 T01890183 10211 20189 55002
KFOD 141056Z AUTO 00000KT 9SM CLR 19/18 A2995 RMK AO2 SLP159 T01890178
KFOD 140956Z AUTO 09003KT 9SM CLR 19/18 A2995 RMK AO2 SLP158 T01890178
KFOD 140856Z AUTO 09004KT 9SM CLR 19/18 A2995 RMK AO2 SLP161 T01890183 58009
KFOD 140756Z AUTO 08005KT 9SM CLR 19/18 A2996 RMK AO2 SLP164 T01940183
KFOD 140656Z AUTO 09003KT 10SM CLR 21/19 A2998 RMK AO2 SLP169 T02060189
KFOD 140556Z AUTO 11003KT 10SM CLR 21/19 A2998 RMK AO2 SLP171 T02110194 10289 20211 56004
KFOD 140456Z AUTO 10005KT 10SM CLR 22/20 A2999 RMK AO2 SLP172 T02170200 403170183
KFOD 140356Z AUTO 12004KT 10SM CLR 23/21 A2999 RMK AO2 SLP172 T02280206
KFOD 140256Z AUTO 11005KT 10SM CLR 23/21 A3000 RMK AO2 SLP176 T02330211 53006
KFOD 140156Z AUTO 12005KT 10SM CLR 26/21 A2999 RMK AO2 SLP172 T02560211
KFOD 140056Z AUTO 12005KT 10SM CLR 27/21 A2999 RMK AO2 SLP172 T02670211
KFOD 132356Z AUTO 12003KT 10SM CLR 29/21 A2998 RMK AO2 SLP170 T02890211 10317 20289 58009 TSNO
KFOD 132256Z AUTO 16004KT 8SM CLR 30/20 A2999 RMK AO2 SLP173 T03000200
KFOD 132156Z AUTO 19006KT 10SM CLR 31/18 A3001 RMK AO2 SLP176 T03110183
KFOD 132056Z AUTO 16005KT 10SM FEW055 31/19 A3001 RMK AO2 SLP178 T03060189 58015
KFOD 131956Z AUTO VRB05KT 9SM SCT049 31/20 A3003 RMK AO2 SLP183 T03110200
KFOD 131856Z AUTO 17006KT 10SM CLR 31/21 A3004 RMK AO2 SLP188 T03060211
KFOD 131756Z AUTO 15005KT 7SM CLR 30/21 A3005 RMK AO2 SLP193 T03000206 10300 20183 58010
KFOD 131656Z AUTO 17005KT 10SM CLR 28/21 A3007 RMK AO2 SLP198 T02830206
KFOD 131556Z AUTO 18006KT 10SM CLR 27/19 A3008 RMK AO2 SLP202 T02720194
KFOD 131456Z AUTO VRB05KT 10SM CLR 26/19 A3008 RMK AO2 SLP204 T02560194 58003
KFOD 131356Z AUTO 15003KT 10SM CLR 24/19 A3010 RMK AO2 SLP209 T02390189
KFOD 131256Z AUTO 00000KT 10SM CLR 21/19 A3010 RMK AO2 SLP210 T02060189
KFOD 131156Z AUTO 00000KT 10SM CLR 19/18 A3009 RMK AO2 SLP209 T01890178 10228 20189 51001
KFOD 131056Z AUTO 00000KT 10SM CLR 19/18 A3009 RMK AO2 SLP208 T01940178
KFOD 130956Z AUTO 00000KT 10SM CLR 21/19 A3009 RMK AO2 SLP208 T02060189
KFOD 130856Z AUTO 14003KT 10SM CLR 21/19 A3009 RMK AO2 SLP207 T02110189 58004
KFOD 130756Z AUTO 14005KT 10SM CLR 22/19 A3009 RMK AO2 SLP207 T02170189
KFOD 130656Z AUTO 15005KT 10SM CLR 22/19 A3010 RMK AO2 SLP210 T02220194
KFOD 130556Z AUTO 14006KT 10SM CLR 23/19 A3010 RMK AO2 SLP210 60000 T02280194 10283 20228 50003
KFOD 130456Z AUTO 15005KT 10SM CLR 23/20 A3011 RMK AO2 SLP212 T02330200 403060161